createdAt,value
2023-02-08T00:01:34.481Z,32.05
2023-02-08T00:04:02.898Z,27.48
2023-02-08T00:06:31.455Z,33.47
2023-02-08T00:09:01.324Z,36.33
2023-02-08T00:11:29.882Z,29.50
2023-02-08T00:13:58.142Z,34.13
2023-02-08T00:16:27.884Z,30.73
2023-02-08T00:19:01.025Z,30.40
2023-02-08T00:21:29.332Z,28.83
2023-02-08T00:23:57.716Z,36.17
2023-02-08T00:26:26.194Z,36.53
2023-02-08T00:28:54.755Z,27.35
2023-02-08T00:31:23.514Z,29.73
2023-02-08T00:33:53.401Z,31.42
2023-02-08T00:36:21.814Z,33.50
2023-02-08T00:38:50.239Z,35.13
2023-02-08T00:41:18.946Z,29.95
2023-02-08T00:43:47.237Z,32.78
2023-02-08T00:46:15.925Z,36.83
2023-02-08T00:48:44.247Z,35.78
2023-02-08T00:51:15.610Z,37.47
2023-02-08T00:53:46.354Z,33.42
2023-02-08T00:56:16.422Z,33.00
2023-02-08T00:58:46.531Z,33.00
2023-02-08T01:01:15.291Z,33.15
2023-02-08T01:03:45.016Z,31.55
2023-02-08T01:06:17.657Z,31.38
2023-02-08T01:08:46.257Z,26.40
2023-02-08T01:11:18.634Z,28.05
2023-02-08T01:13:47.478Z,29.25
2023-02-08T01:16:19.200Z,31.38
2023-02-08T01:18:50.264Z,34.97
2023-02-08T01:21:22.892Z,30.90
2023-02-08T01:23:52.077Z,31.35
2023-02-08T01:26:22.524Z,31.45
2023-02-08T01:28:51.897Z,32.35
2023-02-08T01:31:23.469Z,32.90
2023-02-08T01:33:52.243Z,35.45
2023-02-08T01:36:23.846Z,32.70
2023-02-08T01:38:52.343Z,31.52
2023-02-08T01:41:25.026Z,29.48
2023-02-08T01:44:49.014Z,30.38
2023-02-08T01:47:17.735Z,29.95
2023-02-08T01:49:46.164Z,28.92
2023-02-08T01:52:21.766Z,28.15
2023-02-08T01:54:58.432Z,28.08
2023-02-08T01:57:27.323Z,26.38
2023-02-08T02:00:03.100Z,33.72
2023-02-08T02:02:32.415Z,27.13
2023-02-08T02:05:03.000Z,37.65
2023-02-08T02:07:35.112Z,28.27
2023-02-08T02:10:23.486Z,30.70
2023-02-08T02:12:53.071Z,29.65
2023-02-08T02:15:21.841Z,25.63
2023-02-08T02:17:50.840Z,31.15
2023-02-08T02:20:43.309Z,29.50
2023-02-08T02:23:58.336Z,25.55
2023-02-08T02:27:13.104Z,27.15
2023-02-08T02:30:33.931Z,33.88
2023-02-08T02:33:53.732Z,28.50
2023-02-08T02:36:32.681Z,30.33
2023-02-08T02:39:18.164Z,27.38
2023-02-08T02:42:14.069Z,29.02
2023-02-08T02:44:55.558Z,32.10
2023-02-08T02:47:32.616Z,29.55
2023-02-08T02:50:12.064Z,28.15
2023-02-08T02:52:47.121Z,31.08
2023-02-08T02:55:20.115Z,27.00
2023-02-08T02:57:52.938Z,28.35
2023-02-08T03:00:25.502Z,32.33
2023-02-08T03:02:55.655Z,30.17
2023-02-08T03:05:25.936Z,27.98
2023-02-08T03:08:18.007Z,29.85
2023-02-08T03:11:06.214Z,29.50
2023-02-08T03:13:53.840Z,26.80
2023-02-08T03:16:32.550Z,27.23
2023-02-08T03:19:11.910Z,29.17
2023-02-08T03:21:48.976Z,27.45
2023-02-08T03:24:28.720Z,26.67
2023-02-08T03:27:04.688Z,24.70
2023-02-08T03:29:45.738Z,29.13
2023-02-08T03:32:20.025Z,27.52
2023-02-08T03:34:54.599Z,28.65
2023-02-08T03:37:27.058Z,29.25
2023-02-08T03:40:04.836Z,24.48
2023-02-08T03:42:34.595Z,33.55
2023-02-08T03:45:07.836Z,27.52
2023-02-08T03:47:40.534Z,30.75
2023-02-08T03:50:13.725Z,30.75
2023-02-08T03:52:43.754Z,27.30
2023-02-08T03:55:16.697Z,28.40
2023-02-08T03:57:50.812Z,24.88
2023-02-08T04:00:21.875Z,24.77
2023-02-08T04:03:00.603Z,26.63
2023-02-08T04:05:30.021Z,30.20
2023-02-08T04:07:59.646Z,26.70
2023-02-08T04:10:28.549Z,28.10
2023-02-08T04:12:59.991Z,27.40
2023-02-08T04:15:28.542Z,30.17
2023-02-08T04:17:56.996Z,27.38
2023-02-08T04:20:25.276Z,30.00
2023-02-08T04:22:53.636Z,27.67
2023-02-08T04:25:24.628Z,24.63
2023-02-08T04:27:53.152Z,28.08
2023-02-08T04:30:21.826Z,25.23
2023-02-08T04:32:50.142Z,25.63
2023-02-08T04:35:18.986Z,28.00
2023-02-08T04:37:48.222Z,26.58
2023-02-08T04:40:16.562Z,31.42
2023-02-08T04:42:46.282Z,29.90
2023-02-08T04:45:14.619Z,32.45
2023-02-08T04:47:42.891Z,26.45
2023-02-08T04:50:11.529Z,31.50
2023-02-08T04:52:39.801Z,27.45
2023-02-08T04:55:11.652Z,28.33
2023-02-08T04:57:40.027Z,32.10
2023-02-08T05:00:12.480Z,29.33
2023-02-08T05:02:40.878Z,27.48
2023-02-08T05:05:09.708Z,31.90
2023-02-08T05:07:38.064Z,31.88
2023-02-08T05:10:10.091Z,31.08
2023-02-08T05:12:38.578Z,33.55
2023-02-08T05:15:07.608Z,28.33
2023-02-08T05:17:38.320Z,30.98
2023-02-08T05:20:08.491Z,24.42
2023-02-08T05:22:37.231Z,25.55
2023-02-08T05:25:06.794Z,33.78
2023-02-08T05:27:36.175Z,32.47
2023-02-08T05:30:06.391Z,29.40
2023-02-08T05:32:36.189Z,31.23
2023-02-08T05:35:08.888Z,28.00
2023-02-08T05:37:37.222Z,26.20
2023-02-08T05:40:06.119Z,28.63
2023-02-08T05:42:42.452Z,27.38
2023-02-08T05:45:11.392Z,30.52
2023-02-08T05:47:42.011Z,26.23
2023-02-08T05:50:10.940Z,30.85
2023-02-08T05:52:39.532Z,26.73
2023-02-08T05:55:09.488Z,27.80
2023-02-08T05:57:38.138Z,29.88
2023-02-08T06:00:08.365Z,30.83
2023-02-08T06:02:37.416Z,28.15
2023-02-08T06:05:09.862Z,28.05
2023-02-08T06:07:38.272Z,31.70
2023-02-08T06:10:08.838Z,25.95
2023-02-08T06:12:38.259Z,31.42
2023-02-08T06:15:07.419Z,32.25
2023-02-08T06:17:35.743Z,28.27
2023-02-08T06:20:04.280Z,37.92
2023-02-08T06:22:36.454Z,28.60
2023-02-08T06:25:05.315Z,28.83
2023-02-08T06:27:33.646Z,26.52
2023-02-08T06:30:02.334Z,27.75
2023-02-08T06:32:31.007Z,24.58
2023-02-08T06:34:59.575Z,26.83
2023-02-08T06:37:27.885Z,27.60
2023-02-08T06:39:57.665Z,28.95
2023-02-08T06:42:26.481Z,28.52
2023-02-08T06:44:55.929Z,26.92
2023-02-08T06:47:24.552Z,28.83
2023-02-08T06:49:53.039Z,25.48
2023-02-08T06:52:22.425Z,29.23
2023-02-08T06:54:51.180Z,27.15
2023-02-08T06:57:20.947Z,26.35
2023-02-08T06:59:49.504Z,25.63
2023-02-08T07:02:20.758Z,22.85
2023-02-08T07:04:49.559Z,29.27
2023-02-08T07:07:19.755Z,29.00
2023-02-08T07:09:48.069Z,26.13
2023-02-08T07:12:16.720Z,29.85
2023-02-08T07:14:46.543Z,27.17
2023-02-08T07:17:15.686Z,26.33
2023-02-08T07:19:43.978Z,25.88
2023-02-08T07:22:15.406Z,28.40
2023-02-08T07:24:43.870Z,28.27
2023-02-08T07:27:15.073Z,25.15
2023-02-08T07:29:43.447Z,24.52
2023-02-08T07:32:13.902Z,29.80
2023-02-08T07:34:42.629Z,24.50
2023-02-08T07:37:11.023Z,33.83
2023-02-08T07:39:39.332Z,24.27
2023-02-08T07:42:10.267Z,29.17
2023-02-08T07:44:38.921Z,26.05
2023-02-08T07:47:08.008Z,27.55
2023-02-08T07:49:37.618Z,29.20
2023-02-08T07:52:06.157Z,25.05
2023-02-08T07:54:37.552Z,25.88
2023-02-08T07:57:05.954Z,29.58
2023-02-08T07:59:34.250Z,29.67
2023-02-08T08:02:02.636Z,31.90
2023-02-08T08:04:30.923Z,26.60
2023-02-08T08:07:00.692Z,27.48
2023-02-08T08:09:29.053Z,27.05
2023-02-08T08:11:59.406Z,33.45
2023-02-08T08:14:27.824Z,31.75
2023-02-08T08:16:56.057Z,29.00
2023-02-08T08:19:24.651Z,30.05
2023-02-08T08:21:53.013Z,33.28
2023-02-08T08:24:23.056Z,31.27
2023-02-08T08:26:51.404Z,32.95
2023-02-08T08:29:20.441Z,28.63
2023-02-08T08:31:48.840Z,28.10
2023-02-08T08:34:17.266Z,36.08
2023-02-08T08:36:46.099Z,28.77
2023-02-08T08:39:14.623Z,32.55
2023-02-08T08:41:44.541Z,35.63
2023-02-08T08:44:13.190Z,28.23
2023-02-08T08:46:41.504Z,31.65
2023-02-08T08:49:09.854Z,35.38
2023-02-08T08:51:38.085Z,33.10
2023-02-08T08:54:11.310Z,35.55
2023-02-08T08:56:39.664Z,34.97
2023-02-08T08:59:10.219Z,30.05
2023-02-08T09:01:38.908Z,35.72
2023-02-08T09:04:07.637Z,32.83
2023-02-08T09:06:36.158Z,27.38
2023-02-08T09:09:05.071Z,31.58
2023-02-08T09:11:34.408Z,32.30
2023-02-08T09:14:04.926Z,32.80
2023-02-08T09:16:35.334Z,37.53
2023-02-08T09:19:04.941Z,33.08
2023-02-08T09:21:34.137Z,40.97
2023-02-08T09:24:04.457Z,30.27
2023-02-08T09:26:32.990Z,34.30
2023-02-08T09:29:03.451Z,30.92
2023-02-08T09:31:36.502Z,36.60
2023-02-08T09:34:07.257Z,31.25
2023-02-08T09:36:39.836Z,30.50
2023-02-08T09:39:13.847Z,27.65
2023-02-08T09:42:14.152Z,31.40
2023-02-08T09:44:58.455Z,30.45
2023-02-08T09:47:35.113Z,28.13
2023-02-08T09:50:13.493Z,30.48
2023-02-08T09:52:46.815Z,28.55
2023-02-08T09:55:27.561Z,35.75
2023-02-08T09:57:59.489Z,27.95
2023-02-08T10:00:36.521Z,30.90
2023-02-08T10:03:11.380Z,34.00
2023-02-08T10:05:39.691Z,28.25
2023-02-08T10:08:11.879Z,27.98
2023-02-08T10:10:50.296Z,27.13
2023-02-08T10:13:41.444Z,22.73
2023-02-08T10:16:21.844Z,21.70
2023-02-08T10:19:04.587Z,23.60
2023-02-08T10:21:50.335Z,19.58
2023-02-08T10:24:50.563Z,26.00
2023-02-08T10:27:25.030Z,26.65
2023-02-08T10:30:06.742Z,19.33
2023-02-08T10:32:51.599Z,20.13
2023-02-08T10:35:29.723Z,19.67
2023-02-08T10:38:00.609Z,21.90
2023-02-08T10:40:36.081Z,23.95
2023-02-08T10:43:21.098Z,20.98
2023-02-08T10:45:56.265Z,21.63
2023-02-08T10:48:48.509Z,18.73
2023-02-08T10:51:21.589Z,17.55
2023-02-08T10:53:50.436Z,21.77
2023-02-08T10:56:36.953Z,17.83
2023-02-08T10:59:16.213Z,18.35
2023-02-08T11:01:46.717Z,18.60
2023-02-08T11:04:16.884Z,22.90
2023-02-08T11:06:52.035Z,18.08
2023-02-08T11:09:30.493Z,18.35
2023-02-08T11:12:02.330Z,18.95
2023-02-08T11:14:47.205Z,16.52
2023-02-08T11:17:29.533Z,18.23
2023-02-08T11:19:59.747Z,22.50
2023-02-08T11:22:32.291Z,18.58
2023-02-08T11:25:03.580Z,17.55
2023-02-08T11:27:35.150Z,20.95
2023-02-08T11:30:24.239Z,21.10
2023-02-08T11:33:23.363Z,20.27
2023-02-08T11:36:07.653Z,18.80
2023-02-08T11:38:42.830Z,17.70
2023-02-08T11:41:19.061Z,18.20
2023-02-08T11:43:59.363Z,20.65
2023-02-08T11:46:30.709Z,18.00
2023-02-08T11:48:59.036Z,20.67
2023-02-08T11:51:31.788Z,17.48
2023-02-08T11:54:02.254Z,18.98
2023-02-08T11:56:32.589Z,18.98
2023-02-08T11:59:17.848Z,18.05
2023-02-08T12:01:46.616Z,18.90
2023-02-08T12:04:18.041Z,18.88
2023-02-08T12:07:16.849Z,17.15
2023-02-08T12:10:12.000Z,18.48
2023-02-08T12:13:13.538Z,17.02
2023-02-08T12:15:58.872Z,20.52
2023-02-08T12:19:01.049Z,18.23
2023-02-08T12:21:37.538Z,14.65
2023-02-08T12:24:16.905Z,15.70
2023-02-08T12:27:05.820Z,15.52
2023-02-08T12:29:49.063Z,16.10
2023-02-08T12:32:49.763Z,15.88
2023-02-08T12:36:04.617Z,14.98
2023-02-08T12:39:25.733Z,17.50
2023-02-08T12:42:23.502Z,17.80
2023-02-08T12:45:28.496Z,15.48
2023-02-08T12:48:13.511Z,17.20
2023-02-08T12:50:52.715Z,19.23
2023-02-08T12:53:31.070Z,17.02
2023-02-08T12:56:03.594Z,16.08
2023-02-08T12:58:40.114Z,15.77
2023-02-08T13:01:15.404Z,16.33
2023-02-08T13:03:50.257Z,15.27
2023-02-08T13:06:25.338Z,17.02
2023-02-08T13:09:01.837Z,15.07
2023-02-08T13:11:38.102Z,13.88
2023-02-08T13:14:15.934Z,17.00
2023-02-08T13:16:48.484Z,14.07
2023-02-08T13:19:31.484Z,14.80
2023-02-08T13:22:01.268Z,20.88
2023-02-08T13:24:36.901Z,15.13
2023-02-08T13:27:07.420Z,14.90
2023-02-08T13:29:38.479Z,15.00
2023-02-08T13:32:15.285Z,16.08
2023-02-08T13:34:48.315Z,18.05
2023-02-08T13:37:27.297Z,15.45
2023-02-08T13:40:05.371Z,16.00
2023-02-08T13:42:39.690Z,14.23
2023-02-08T13:45:12.385Z,15.68
2023-02-08T13:47:47.661Z,15.05
2023-02-08T13:50:46.944Z,15.23
2023-02-08T13:53:17.803Z,15.40
2023-02-08T13:55:58.716Z,15.77
2023-02-08T13:59:08.592Z,14.35
2023-02-08T14:01:38.377Z,17.48
2023-02-08T14:04:36.428Z,16.52
2023-02-08T14:07:33.244Z,15.50
2023-02-08T14:10:14.708Z,14.98
2023-02-08T14:12:58.627Z,15.75
2023-02-08T14:15:37.900Z,12.75
2023-02-08T14:18:27.634Z,14.00
2023-02-08T14:21:07.959Z,14.25
2023-02-08T14:23:40.751Z,13.77
2023-02-08T14:26:20.752Z,12.55
2023-02-08T14:28:57.289Z,10.98
2023-02-08T14:31:38.677Z,14.18
2023-02-08T14:34:22.962Z,11.88
2023-02-08T14:37:03.118Z,13.85
2023-02-08T14:39:35.345Z,12.15
2023-02-08T14:42:07.194Z,13.48
2023-02-08T14:45:04.760Z,11.98
2023-02-08T14:48:07.966Z,13.15
2023-02-08T14:50:44.190Z,14.80
2023-02-08T14:53:41.525Z,11.93
2023-02-08T14:56:20.121Z,14.70
2023-02-08T14:58:52.723Z,13.65
2023-02-08T15:01:27.224Z,12.10
2023-02-08T15:04:01.633Z,13.98
2023-02-08T15:07:01.383Z,12.32
2023-02-08T15:09:31.565Z,13.80
2023-02-08T15:12:04.676Z,12.00
2023-02-08T15:14:38.004Z,14.82
2023-02-08T15:17:08.262Z,13.32
2023-02-08T15:19:39.368Z,14.90
2023-02-08T15:22:33.748Z,12.10
2023-02-08T15:25:17.876Z,13.50
2023-02-08T15:27:50.069Z,15.45
2023-02-08T15:30:29.945Z,11.98
2023-02-08T15:32:58.726Z,12.35
2023-02-08T15:35:28.278Z,11.82
2023-02-08T15:37:59.534Z,10.70
2023-02-08T15:40:30.559Z,12.38
2023-02-08T15:43:12.579Z,14.02
2023-02-08T15:45:41.744Z,13.48
2023-02-08T15:48:11.559Z,13.52
2023-02-08T15:50:39.902Z,12.77
2023-02-08T15:53:15.713Z,12.52
2023-02-08T15:55:49.875Z,11.43
2023-02-08T15:58:28.785Z,13.48
2023-02-08T16:00:59.404Z,12.43
2023-02-08T16:03:29.493Z,11.48
2023-02-08T16:06:00.560Z,11.57
2023-02-08T16:08:33.629Z,13.40
2023-02-08T16:11:05.232Z,13.00
2023-02-08T16:13:37.223Z,10.57
2023-02-08T16:16:19.219Z,10.25
2023-02-08T16:18:50.280Z,12.98
2023-02-08T16:21:29.568Z,12.32
2023-02-08T16:24:02.304Z,12.38
2023-02-08T16:26:35.155Z,10.15
2023-02-08T16:29:06.626Z,14.63
2023-02-08T16:31:36.793Z,14.15
2023-02-08T16:34:08.444Z,12.45
2023-02-08T16:36:42.826Z,21.13
2023-02-08T16:39:42.586Z,12.38
2023-02-08T16:42:31.587Z,16.67
2023-02-08T16:45:18.666Z,11.52
2023-02-08T16:47:51.617Z,19.00
2023-02-08T16:50:23.089Z,14.70
2023-02-08T16:52:54.994Z,11.50
2023-02-08T16:55:28.388Z,17.67
2023-02-08T16:57:59.214Z,11.23
2023-02-08T17:00:30.325Z,12.20
2023-02-08T17:02:59.479Z,14.00
2023-02-08T17:05:31.277Z,12.43
2023-02-08T17:08:00.277Z,13.48
2023-02-08T17:10:32.335Z,11.63
2023-02-08T17:13:20.824Z,11.45
2023-02-08T17:15:51.808Z,12.07
2023-02-08T17:18:21.419Z,21.08
2023-02-08T17:20:49.790Z,20.27
2023-02-08T17:23:18.106Z,19.73
2023-02-08T17:25:48.297Z,19.35
2023-02-08T17:28:19.911Z,23.42
2023-02-08T17:30:49.753Z,18.65
2023-02-08T17:33:21.586Z,18.63
2023-02-08T17:35:52.480Z,21.60
2023-02-08T17:38:21.957Z,18.77
2023-02-08T17:40:51.734Z,18.35
2023-02-08T17:43:20.341Z,17.52
2023-02-08T17:45:48.597Z,18.63
2023-02-08T17:48:17.057Z,18.20
2023-02-08T17:50:50.880Z,19.70
2023-02-08T17:53:20.098Z,15.05
2023-02-08T17:55:48.886Z,16.92
2023-02-08T17:58:18.924Z,15.20
2023-02-08T18:00:47.290Z,16.73
2023-02-08T18:03:17.313Z,11.10
2023-02-08T18:05:45.672Z,13.65
2023-02-08T18:08:14.704Z,13.02
2023-02-08T18:10:43.317Z,13.25
2023-02-08T18:13:16.282Z,14.88
2023-02-08T18:15:47.365Z,15.15
2023-02-08T18:18:16.486Z,13.90
2023-02-08T18:20:47.991Z,12.63
2023-02-08T18:23:16.545Z,13.85
2023-02-08T18:25:45.424Z,12.48
2023-02-08T18:28:16.405Z,12.40
2023-02-08T18:30:46.242Z,15.90
2023-02-08T18:33:14.705Z,15.40
2023-02-08T18:35:49.238Z,13.65
2023-02-08T18:38:17.649Z,16.70
2023-02-08T18:40:45.963Z,13.45
2023-02-08T18:43:14.223Z,14.00
2023-02-08T18:45:42.640Z,14.85
2023-02-08T18:48:16.022Z,15.18
2023-02-08T18:50:44.369Z,17.75
2023-02-08T18:53:13.112Z,13.05
2023-02-08T18:55:41.820Z,14.18
2023-02-08T18:58:12.316Z,12.38
2023-02-08T19:00:41.464Z,15.40
2023-02-08T19:03:14.079Z,13.27
2023-02-08T19:05:43.045Z,15.80
2023-02-08T19:08:14.371Z,17.52
2023-02-08T19:10:43.749Z,12.90
2023-02-08T19:13:12.070Z,13.93
2023-02-08T19:15:42.509Z,20.23
2023-02-08T19:18:12.887Z,16.40
2023-02-08T19:20:41.294Z,12.48
2023-02-08T19:23:09.705Z,15.30
2023-02-08T19:25:40.731Z,16.13
2023-02-08T19:28:13.210Z,14.45
2023-02-08T19:30:41.652Z,15.52
2023-02-08T19:33:13.417Z,14.27
2023-02-08T19:35:41.989Z,17.63
2023-02-08T19:38:11.564Z,21.05
2023-02-08T19:40:39.924Z,12.98
2023-02-08T19:43:08.218Z,11.43
2023-02-08T19:45:37.004Z,20.67
2023-02-08T19:48:05.669Z,37.78
2023-02-08T19:50:35.330Z,26.55
2023-02-08T19:53:03.866Z,27.83
2023-02-08T19:55:32.213Z,32.55
2023-02-08T19:58:07.903Z,35.70
2023-02-08T20:00:38.442Z,28.00
2023-02-08T20:03:19.722Z,20.38
2023-02-08T20:05:53.605Z,16.83
2023-02-08T20:08:25.864Z,16.38
2023-02-08T20:10:58.303Z,13.20
2023-02-08T20:13:26.591Z,17.23
2023-02-08T20:15:59.743Z,14.13
2023-02-08T20:18:28.145Z,15.02
2023-02-08T20:21:05.392Z,15.27
2023-02-08T20:23:33.852Z,16.02
2023-02-08T20:26:15.374Z,18.00
2023-02-08T20:28:47.430Z,14.60
2023-02-08T20:31:19.236Z,15.98
2023-02-08T20:33:48.150Z,18.33
2023-02-08T20:36:20.678Z,19.17
2023-02-08T20:38:49.449Z,16.55
2023-02-08T20:41:18.832Z,16.08
2023-02-08T20:43:48.818Z,13.45
2023-02-08T20:46:20.069Z,13.23
2023-02-08T20:48:49.125Z,15.60
2023-02-08T20:51:22.486Z,13.65
2023-02-08T20:53:51.752Z,15.88
2023-02-08T20:56:23.666Z,13.20
2023-02-08T20:58:53.579Z,14.32
2023-02-08T21:01:25.722Z,15.30
2023-02-08T21:03:54.941Z,15.77
2023-02-08T21:06:29.433Z,15.38
2023-02-08T21:08:58.098Z,12.70
2023-02-08T21:11:29.010Z,12.45
2023-02-08T21:14:01.346Z,17.20
2023-02-08T21:16:33.118Z,17.70
2023-02-08T21:19:01.516Z,17.58
2023-02-08T21:21:31.378Z,14.75
2023-02-08T21:23:59.856Z,18.40
2023-02-08T21:26:28.463Z,18.45
2023-02-08T21:28:58.769Z,16.25
2023-02-08T21:31:27.586Z,14.63
2023-02-08T21:33:55.963Z,15.23
2023-02-08T21:36:25.622Z,15.63
2023-02-08T21:38:57.626Z,16.55
2023-02-08T21:41:28.416Z,20.08
2023-02-08T21:43:59.353Z,16.98
2023-02-08T21:46:28.732Z,19.70
2023-02-08T21:49:15.390Z,18.63
2023-02-08T21:52:01.883Z,16.52
2023-02-08T21:54:44.385Z,16.92
2023-02-08T21:57:18.988Z,19.30
2023-02-08T21:59:48.950Z,18.80
2023-02-08T22:02:21.696Z,19.17
2023-02-08T22:04:50.645Z,17.08
2023-02-08T22:07:19.036Z,17.27
2023-02-08T22:09:48.933Z,17.65
2023-02-08T22:12:20.792Z,15.63
2023-02-08T22:14:49.674Z,16.52
2023-02-08T22:17:18.908Z,15.90
2023-02-08T22:19:47.347Z,19.38
2023-02-08T22:22:15.595Z,19.13
2023-02-08T22:24:44.016Z,15.48
2023-02-08T22:27:14.153Z,18.02
2023-02-08T22:29:42.411Z,17.77
2023-02-08T22:32:12.557Z,19.25
2023-02-08T22:34:40.877Z,16.52
2023-02-08T22:37:10.484Z,16.27
2023-02-08T22:39:38.845Z,18.17
2023-02-08T22:42:13.385Z,15.70
2023-02-08T22:44:44.992Z,15.80
2023-02-08T22:47:14.543Z,16.83
2023-02-08T22:49:43.140Z,17.38
2023-02-08T22:52:12.273Z,16.83
2023-02-08T22:54:40.542Z,18.42
2023-02-08T22:57:10.005Z,17.83
2023-02-08T22:59:39.259Z,15.27
2023-02-08T23:02:09.491Z,18.08
2023-02-08T23:04:38.354Z,18.40
2023-02-08T23:07:06.916Z,18.40
2023-02-08T23:09:35.148Z,17.60
2023-02-08T23:12:03.529Z,18.08
2023-02-08T23:14:32.872Z,19.98
2023-02-08T23:17:01.275Z,20.20
2023-02-08T23:19:31.288Z,19.80
2023-02-08T23:22:00.454Z,18.92
2023-02-08T23:24:29.301Z,19.83
2023-02-08T23:26:57.620Z,17.90
2023-02-08T23:29:25.898Z,21.38
2023-02-08T23:31:54.249Z,21.73
2023-02-08T23:34:22.560Z,18.65
2023-02-08T23:36:52.288Z,17.33
2023-02-08T23:39:20.700Z,19.58
2023-02-08T23:41:48.922Z,17.30
2023-02-08T23:44:17.198Z,17.67
2023-02-08T23:46:45.638Z,22.65
2023-02-08T23:49:13.904Z,19.92
2023-02-08T23:51:42.087Z,20.35
2023-02-08T23:54:14.606Z,21.70
2023-02-08T23:56:42.848Z,17.70
2023-02-08T23:59:12.458Z,23.40
